createdAt,value
2022-12-12T00:01:46.390Z,42.20
2022-12-12T00:03:49.016Z,42.50
2022-12-12T00:05:54.454Z,42.60
2022-12-12T00:08:00.155Z,42.50
2022-12-12T00:10:08.497Z,42.60
2022-12-12T00:12:12.398Z,42.50
2022-12-12T00:14:16.403Z,42.90
2022-12-12T00:16:19.058Z,43.00
2022-12-12T00:18:21.720Z,42.60
2022-12-12T00:20:24.259Z,42.40
2022-12-12T00:22:28.175Z,42.40
2022-12-12T00:24:30.971Z,43.00
2022-12-12T00:26:36.784Z,42.50
2022-12-12T00:28:39.275Z,43.00
2022-12-12T00:30:44.821Z,42.50
2022-12-12T00:32:47.472Z,42.60
2022-12-12T00:34:50.087Z,42.50
2022-12-12T00:36:52.675Z,42.20
2022-12-12T00:38:56.022Z,42.50
2022-12-12T00:40:59.988Z,42.70
2022-12-12T00:43:02.841Z,42.60
2022-12-12T00:45:05.917Z,42.50
2022-12-12T00:47:12.181Z,42.80
2022-12-12T00:49:14.864Z,42.50
2022-12-12T00:51:24.125Z,42.60
2022-12-12T00:53:27.700Z,43.10
2022-12-12T00:55:33.292Z,42.60
2022-12-12T00:57:36.466Z,42.60
2022-12-12T00:59:39.254Z,42.50
2022-12-12T01:01:42.087Z,42.50
2022-12-12T01:03:49.511Z,42.30
2022-12-12T01:05:53.272Z,43.10
2022-12-12T01:07:57.839Z,42.50
2022-12-12T01:10:04.668Z,42.70
2022-12-12T01:12:08.455Z,43.10
2022-12-12T01:14:15.196Z,42.30
2022-12-12T01:16:19.647Z,43.00
2022-12-12T01:18:22.036Z,42.80
2022-12-12T01:20:26.288Z,42.40
2022-12-12T01:22:30.543Z,42.70
2022-12-12T01:24:35.365Z,42.30
2022-12-12T01:26:39.808Z,42.70
2022-12-12T01:28:42.467Z,43.00
2022-12-12T01:30:47.546Z,42.30
2022-12-12T01:32:50.198Z,42.90
2022-12-12T01:34:54.429Z,42.40
2022-12-12T01:36:57.981Z,42.20
2022-12-12T01:39:03.261Z,42.70
2022-12-12T01:41:06.820Z,42.60
2022-12-12T01:43:13.079Z,42.50
2022-12-12T01:45:34.899Z,42.90
2022-12-12T01:47:37.654Z,43.00
2022-12-12T01:49:41.134Z,42.50
2022-12-12T01:51:48.571Z,42.70
2022-12-12T01:53:53.379Z,43.00
2022-12-12T01:55:58.649Z,42.60
2022-12-12T01:58:03.299Z,42.90
2022-12-12T02:00:07.873Z,42.80
2022-12-12T02:02:11.952Z,42.70
2022-12-12T02:04:16.033Z,42.70
2022-12-12T02:06:24.410Z,42.70
2022-12-12T02:08:30.230Z,43.00
2022-12-12T02:10:33.805Z,42.80
2022-12-12T02:12:38.547Z,42.20
2022-12-12T02:14:43.176Z,42.00
2022-12-12T02:17:03.278Z,42.20
2022-12-12T02:19:16.550Z,42.50
2022-12-12T02:21:38.475Z,42.00
2022-12-12T02:23:56.195Z,42.20
2022-12-12T02:26:04.432Z,42.40
2022-12-12T02:28:25.481Z,42.70
2022-12-12T02:30:40.559Z,42.50
2022-12-12T02:33:01.253Z,42.70
2022-12-12T02:35:12.305Z,42.60
2022-12-12T02:37:17.846Z,42.70
2022-12-12T02:39:24.717Z,42.40
2022-12-12T02:41:49.567Z,42.60
2022-12-12T02:43:58.664Z,42.70
2022-12-12T02:46:06.999Z,42.20
2022-12-12T02:48:20.543Z,42.30
2022-12-12T02:50:25.138Z,42.70
2022-12-12T02:52:28.092Z,42.40
2022-12-12T02:54:30.936Z,42.40
2022-12-12T02:56:45.702Z,42.10
2022-12-12T02:58:48.352Z,42.60
2022-12-12T03:00:58.849Z,42.00
2022-12-12T03:03:18.976Z,42.50
2022-12-12T03:05:20.952Z,42.60
2022-12-12T03:07:29.047Z,42.20
2022-12-12T03:09:49.409Z,42.60
2022-12-12T03:11:54.425Z,42.70
2022-12-12T03:13:59.101Z,42.70
2022-12-12T03:16:08.456Z,42.40
2022-12-12T03:18:36.727Z,42.30
2022-12-12T03:20:43.520Z,42.50
2022-12-12T03:23:09.390Z,42.20
2022-12-12T03:25:25.173Z,42.70
2022-12-12T03:27:38.530Z,42.60
2022-12-12T03:29:43.943Z,42.20
2022-12-12T03:31:48.709Z,42.30
2022-12-12T03:33:54.994Z,42.40
2022-12-12T03:36:02.392Z,42.20
2022-12-12T03:38:12.083Z,42.60
2022-12-12T03:40:16.529Z,42.60
2022-12-12T03:42:18.795Z,42.10
2022-12-12T03:44:22.642Z,42.20
2022-12-12T03:46:28.429Z,42.40
2022-12-12T03:48:41.116Z,42.40
2022-12-12T03:50:45.185Z,42.60
2022-12-12T03:52:52.509Z,42.20
2022-12-12T03:55:15.279Z,42.20
2022-12-12T03:57:37.695Z,42.50
2022-12-12T03:59:42.587Z,42.50
2022-12-12T04:01:48.911Z,42.10
2022-12-12T04:03:53.751Z,42.10
2022-12-12T04:06:07.538Z,42.40
2022-12-12T04:08:13.326Z,42.50
2022-12-12T04:10:15.370Z,42.10
2022-12-12T04:12:29.809Z,41.70
2022-12-12T04:14:37.716Z,42.20
2022-12-12T04:16:42.837Z,42.10
2022-12-12T04:18:47.822Z,42.20
2022-12-12T04:21:04.820Z,42.00
2022-12-12T04:23:13.613Z,42.10
2022-12-12T04:25:24.845Z,41.90
2022-12-12T04:27:48.853Z,42.10
2022-12-12T04:29:57.331Z,42.40
2022-12-12T04:32:17.960Z,42.30
2022-12-12T04:34:24.038Z,42.40
2022-12-12T04:36:26.666Z,42.10
2022-12-12T04:38:28.959Z,42.00
2022-12-12T04:40:32.891Z,42.10
2022-12-12T04:42:39.982Z,42.00
2022-12-12T04:44:43.288Z,42.10
2022-12-12T04:46:48.004Z,41.90
2022-12-12T04:49:01.952Z,42.10
2022-12-12T04:51:06.084Z,42.30
2022-12-12T04:53:14.860Z,42.10
2022-12-12T04:55:29.481Z,42.10
2022-12-12T04:57:36.558Z,42.30
2022-12-12T04:59:39.086Z,42.30
2022-12-12T05:02:10.233Z,42.10
2022-12-12T05:04:14.689Z,42.40
2022-12-12T05:06:19.817Z,42.00
2022-12-12T05:08:27.984Z,42.10
2022-12-12T05:10:30.188Z,42.20
2022-12-12T05:12:39.564Z,41.50
2022-12-12T05:14:41.850Z,41.70
2022-12-12T05:16:46.218Z,41.30
2022-12-12T05:18:48.388Z,41.70
2022-12-12T05:20:50.797Z,41.30
2022-12-12T05:22:53.045Z,41.70
2022-12-12T05:24:55.347Z,41.40
2022-12-12T05:27:00.046Z,41.20
2022-12-12T05:29:07.285Z,42.10
2022-12-12T05:31:10.045Z,42.10
2022-12-12T05:33:12.495Z,41.60
2022-12-12T05:35:14.989Z,41.50
2022-12-12T05:37:17.332Z,41.50
2022-12-12T05:39:19.250Z,41.60
2022-12-12T05:41:21.348Z,41.90
2022-12-12T05:43:23.454Z,41.30
2022-12-12T05:45:25.567Z,41.30
2022-12-12T05:47:27.598Z,41.60
2022-12-12T05:49:30.060Z,41.70
2022-12-12T05:51:32.245Z,41.40
2022-12-12T05:53:42.459Z,41.70
2022-12-12T05:55:45.053Z,41.40
2022-12-12T05:57:47.578Z,41.30
2022-12-12T05:59:49.924Z,41.90
2022-12-12T06:01:52.396Z,41.40
2022-12-12T06:03:54.866Z,41.40
2022-12-12T06:05:57.492Z,41.60
2022-12-12T06:08:00.279Z,41.50
2022-12-12T06:10:03.024Z,41.40
2022-12-12T06:12:05.666Z,41.40
2022-12-12T06:14:08.483Z,41.50
2022-12-12T06:16:15.267Z,41.50
2022-12-12T06:18:17.686Z,41.40
2022-12-12T06:20:21.457Z,41.20
2022-12-12T06:22:24.108Z,41.10
2022-12-12T06:24:29.408Z,41.30
2022-12-12T06:26:32.266Z,41.40
2022-12-12T06:28:35.907Z,41.20
2022-12-12T06:30:41.345Z,42.00
2022-12-12T06:32:47.436Z,41.30
2022-12-12T06:34:50.129Z,41.90
2022-12-12T06:36:55.728Z,41.50
2022-12-12T06:39:02.400Z,41.40
2022-12-12T06:41:08.603Z,41.60
2022-12-12T06:43:11.288Z,42.00
2022-12-12T06:45:14.034Z,41.80
2022-12-12T06:47:16.892Z,41.30
2022-12-12T06:49:19.550Z,41.40
2022-12-12T06:51:23.421Z,41.40
2022-12-12T06:53:26.431Z,41.60
2022-12-12T06:55:34.148Z,41.90
2022-12-12T06:57:37.017Z,41.50
2022-12-12T06:59:39.565Z,41.20
2022-12-12T07:01:42.117Z,41.40
2022-12-12T07:03:46.121Z,41.10
2022-12-12T07:05:48.540Z,41.50
2022-12-12T07:07:52.209Z,41.60
2022-12-12T07:09:54.968Z,41.30
2022-12-12T07:11:59.307Z,41.50
2022-12-12T07:14:01.638Z,41.20
2022-12-12T07:19:08.251Z,41.30
2022-12-12T07:21:12.820Z,41.70
2022-12-12T07:23:15.583Z,41.50
2022-12-12T07:25:18.187Z,41.60
2022-12-12T07:27:22.134Z,41.40
2022-12-12T07:29:25.521Z,41.80
2022-12-12T07:31:28.549Z,41.30
2022-12-12T07:33:41.103Z,41.30
2022-12-12T07:35:45.892Z,41.10
2022-12-12T07:37:51.012Z,41.40
2022-12-12T07:42:20.326Z,41.40
2022-12-12T07:44:43.787Z,41.80
2022-12-12T07:54:54.479Z,41.40
2022-12-12T07:57:05.313Z,41.30
2022-12-12T08:07:10.006Z,41.40
2022-12-12T08:11:46.056Z,41.60
2022-12-12T08:14:12.660Z,41.50
2022-12-12T08:16:28.438Z,41.20
2022-12-12T08:18:31.290Z,41.30
2022-12-12T08:20:34.338Z,41.20
2022-12-12T08:22:42.586Z,41.50
2022-12-12T08:24:44.646Z,41.70
2022-12-12T08:28:57.190Z,41.80
2022-12-12T08:30:59.091Z,41.90
2022-12-12T08:33:06.470Z,41.90
2022-12-12T08:35:10.041Z,42.30
2022-12-12T08:37:12.012Z,42.40
2022-12-12T08:39:14.862Z,42.40
2022-12-12T08:41:16.788Z,42.40
2022-12-12T08:43:19.025Z,42.40
2022-12-12T08:45:32.872Z,42.40
2022-12-12T10:49:22.941Z,41.70
2022-12-12T13:04:04.656Z,39.40
2022-12-12T13:28:05.865Z,39.30
2022-12-12T13:30:29.402Z,39.10
2022-12-12T14:01:27.980Z,40.10
2022-12-12T14:51:29.515Z,40.50
2022-12-12T15:46:05.481Z,41.20
2022-12-12T15:48:13.579Z,41.20
2022-12-12T15:50:16.828Z,41.30
2022-12-12T15:52:19.679Z,41.20
2022-12-12T15:54:22.483Z,41.50
2022-12-12T15:56:25.490Z,41.70
2022-12-12T16:01:05.450Z,41.80
2022-12-12T16:03:19.786Z,41.90
2022-12-12T16:05:42.412Z,42.50
2022-12-12T16:08:05.910Z,41.80
2022-12-12T16:24:32.444Z,41.40
2022-12-12T16:43:49.864Z,41.30
2022-12-12T16:55:30.892Z,41.20
2022-12-12T16:58:25.558Z,41.40
2022-12-12T17:02:38.343Z,41.30
2022-12-12T17:04:40.652Z,41.10
2022-12-12T17:06:42.688Z,41.20
2022-12-12T17:08:44.597Z,41.10
2022-12-12T17:10:47.110Z,41.10
2022-12-12T17:12:49.153Z,41.10
2022-12-12T17:14:50.965Z,41.10
2022-12-12T17:16:53.283Z,41.20
2022-12-12T17:18:55.293Z,41.20
2022-12-12T17:20:57.506Z,41.10
2022-12-12T17:25:16.048Z,41.10
2022-12-12T17:27:17.934Z,41.20
2022-12-12T17:29:23.829Z,41.10
2022-12-12T17:31:26.041Z,41.20
2022-12-12T17:33:28.044Z,41.20
2022-12-12T17:35:29.934Z,41.30
2022-12-12T17:37:33.077Z,41.30
2022-12-12T17:39:34.951Z,41.30
2022-12-12T17:41:36.919Z,41.20
2022-12-12T17:43:38.926Z,41.10
2022-12-12T17:45:40.909Z,41.10
2022-12-12T17:47:42.868Z,41.20
2022-12-12T17:49:47.942Z,41.10
2022-12-12T17:51:49.801Z,41.30
2022-12-12T17:53:54.779Z,41.10
2022-12-12T17:56:01.267Z,41.20
2022-12-12T17:58:09.707Z,41.10
2022-12-12T18:00:12.020Z,41.10
2022-12-12T18:02:14.139Z,41.10
2022-12-12T18:04:16.003Z,41.20
2022-12-12T18:06:19.380Z,41.20
2022-12-12T18:08:21.353Z,41.30
2022-12-12T18:10:23.300Z,41.30
2022-12-12T18:12:25.741Z,41.30
2022-12-12T18:14:27.874Z,41.30
2022-12-12T18:16:31.046Z,41.30
2022-12-12T18:18:33.854Z,41.30
2022-12-12T18:20:36.011Z,41.30
2022-12-12T18:22:37.940Z,41.30
2022-12-12T18:24:40.090Z,41.30
2022-12-12T18:26:43.687Z,41.20
2022-12-12T18:28:45.502Z,41.30
2022-12-12T18:30:49.012Z,41.30
2022-12-12T18:32:50.963Z,41.30
2022-12-12T18:34:53.413Z,41.20
2022-12-12T18:36:55.510Z,41.10
2022-12-12T18:38:58.616Z,41.20
2022-12-12T18:41:00.548Z,41.30
2022-12-12T18:43:02.409Z,41.10
2022-12-12T18:45:04.504Z,41.10
2022-12-12T18:47:06.395Z,41.40
2022-12-12T18:49:08.459Z,41.60
2022-12-12T18:51:14.178Z,41.40
2022-12-12T18:53:16.006Z,41.30
2022-12-12T18:55:17.937Z,41.00
2022-12-12T18:57:19.787Z,41.00
2022-12-12T18:59:21.674Z,41.00
2022-12-12T19:01:25.390Z,40.90
2022-12-12T19:03:27.400Z,41.00
2022-12-12T19:05:29.528Z,40.90
2022-12-12T19:07:31.539Z,40.80
2022-12-12T19:09:33.372Z,40.80
2022-12-12T19:11:37.754Z,40.80
2022-12-12T19:13:39.988Z,40.80
2022-12-12T19:15:42.276Z,40.90
2022-12-12T19:17:44.203Z,40.90
2022-12-12T19:19:46.065Z,40.90
2022-12-12T19:21:48.227Z,40.90
2022-12-12T19:23:50.975Z,40.90
2022-12-12T19:25:52.826Z,40.90
2022-12-12T19:27:54.816Z,40.90
2022-12-12T19:29:56.747Z,40.80
2022-12-12T19:31:58.950Z,40.90
2022-12-12T19:34:01.192Z,40.90
2022-12-12T19:36:18.791Z,40.90
2022-12-12T19:38:24.401Z,40.90
2022-12-12T19:40:26.801Z,40.80
2022-12-12T19:42:28.719Z,40.80
2022-12-12T19:44:30.611Z,40.70
2022-12-12T19:46:32.782Z,40.70
2022-12-12T19:48:34.947Z,40.80
2022-12-12T19:50:36.943Z,40.80
2022-12-12T19:52:38.836Z,40.80
2022-12-12T19:54:40.680Z,40.70
2022-12-12T19:56:42.915Z,40.90
2022-12-12T19:58:44.911Z,40.90
2022-12-12T20:00:47.975Z,40.80
2022-12-12T20:02:49.920Z,40.70
2022-12-12T20:04:52.391Z,40.70
2022-12-12T20:06:54.195Z,40.80
2022-12-12T20:08:57.920Z,40.70
2022-12-12T20:11:03.553Z,40.80
2022-12-12T20:13:05.517Z,40.90
2022-12-12T20:15:07.665Z,40.80
2022-12-12T20:17:09.522Z,40.80
2022-12-12T20:19:11.519Z,40.80
2022-12-12T20:21:29.946Z,40.80
2022-12-12T20:23:42.326Z,40.70
2022-12-12T20:25:47.363Z,40.70
2022-12-12T20:27:49.248Z,40.80
2022-12-12T20:29:51.178Z,40.70
2022-12-12T20:31:53.008Z,40.80
2022-12-12T20:33:55.625Z,40.80
2022-12-12T20:36:04.834Z,40.80
2022-12-12T20:38:09.648Z,40.90
2022-12-12T20:40:11.981Z,40.90
2022-12-12T20:42:14.064Z,40.90
2022-12-12T20:44:16.418Z,40.80
2022-12-12T20:46:19.861Z,40.80
2022-12-12T20:48:21.885Z,40.80
2022-12-12T20:50:23.969Z,40.80
2022-12-12T20:52:25.789Z,40.80
2022-12-12T20:54:28.895Z,40.70
2022-12-12T20:56:31.224Z,40.90
2022-12-12T20:58:33.158Z,40.80
2022-12-12T21:00:35.017Z,40.80
2022-12-12T21:02:38.388Z,40.80
2022-12-12T21:04:40.220Z,40.80
2022-12-12T21:06:43.603Z,40.80
2022-12-12T21:08:46.201Z,40.70
2022-12-12T21:10:48.196Z,40.70
2022-12-12T21:12:50.056Z,40.70
2022-12-12T21:15:01.074Z,40.80
2022-12-12T21:17:07.534Z,40.90
2022-12-12T21:19:12.561Z,40.70
2022-12-12T21:21:14.732Z,40.70
2022-12-12T21:23:16.717Z,40.50
2022-12-12T21:25:21.537Z,40.60
2022-12-12T21:27:24.448Z,40.70
2022-12-12T21:29:26.355Z,40.60
2022-12-12T21:31:30.693Z,40.50
2022-12-12T21:33:32.800Z,40.70
2022-12-12T21:35:35.181Z,40.60
2022-12-12T21:37:40.365Z,40.70
2022-12-12T21:39:44.273Z,40.60
2022-12-12T21:41:46.173Z,40.70
2022-12-12T21:43:48.564Z,40.60
2022-12-12T21:45:50.712Z,40.70
2022-12-12T21:47:53.158Z,40.70
2022-12-12T21:49:54.979Z,40.60
2022-12-12T21:52:01.214Z,40.60
2022-12-12T21:54:03.976Z,40.70
2022-12-12T21:56:16.691Z,40.70
2022-12-12T21:58:18.660Z,40.80
2022-12-12T22:00:20.650Z,40.70
2022-12-12T22:02:22.650Z,40.60
2022-12-12T22:04:25.027Z,40.60
2022-12-12T22:06:30.675Z,40.70
2022-12-12T22:08:33.863Z,40.70
2022-12-12T22:10:38.686Z,40.70
2022-12-12T22:12:40.585Z,40.70
2022-12-12T22:14:42.534Z,40.60
2022-12-12T22:16:44.673Z,40.60
2022-12-12T22:18:54.001Z,40.50
2022-12-12T22:20:55.928Z,40.70
2022-12-12T22:22:57.837Z,40.50
2022-12-12T22:24:59.838Z,40.60
2022-12-12T22:27:01.686Z,40.50
2022-12-12T22:29:05.283Z,40.50
2022-12-12T22:31:07.292Z,40.50
2022-12-12T22:33:12.131Z,40.40
2022-12-12T22:35:14.366Z,40.50
2022-12-12T22:37:16.706Z,40.40
2022-12-12T22:39:23.586Z,40.50
2022-12-12T22:41:33.732Z,40.50
2022-12-12T22:43:35.652Z,40.50
2022-12-12T22:45:37.753Z,40.50
2022-12-12T22:47:42.956Z,40.40
2022-12-12T22:49:45.735Z,40.50
2022-12-12T22:51:48.010Z,40.50
2022-12-12T22:53:50.256Z,40.50
2022-12-12T22:55:52.343Z,40.40
2022-12-12T22:57:54.354Z,40.50
2022-12-12T22:59:56.237Z,40.50
2022-12-12T23:01:58.346Z,40.50
2022-12-12T23:04:01.346Z,40.10
2022-12-12T23:06:07.659Z,40.10
2022-12-12T23:08:09.670Z,40.40
2022-12-12T23:10:11.842Z,40.20
2022-12-12T23:12:13.920Z,40.10
2022-12-12T23:14:17.961Z,40.10
2022-12-12T23:16:20.770Z,40.20
2022-12-12T23:18:23.062Z,40.20
2022-12-12T23:20:25.292Z,40.00
2022-12-12T23:22:27.363Z,39.90
2022-12-12T23:24:29.525Z,40.00
2022-12-12T23:26:32.762Z,40.00
2022-12-12T23:28:35.198Z,40.20
2022-12-12T23:30:37.604Z,40.20
2022-12-12T23:32:39.719Z,40.30
2022-12-12T23:34:43.197Z,40.00
2022-12-12T23:36:45.270Z,39.90
2022-12-12T23:38:47.338Z,39.90
2022-12-12T23:40:49.330Z,39.90
2022-12-12T23:42:51.555Z,39.90
2022-12-12T23:44:53.633Z,40.00
2022-12-12T23:46:55.718Z,40.00
2022-12-12T23:48:58.790Z,40.00
2022-12-12T23:51:01.253Z,40.10
2022-12-12T23:53:09.032Z,40.20
2022-12-12T23:55:12.944Z,40.00
2022-12-12T23:57:15.182Z,39.80
2022-12-12T23:59:18.479Z,40.00
